Time;durP1;ratioP1;P1;durP2;ratioP2;P2;SDS_P1;SDS_P2;PMS_P1;PMS_P2;Temp;Humidity;BMP_temperature;BMP_pressure;BME280_temperature;BME280_humidity;BME280_pressure;Samples;Min_cycle;Max_cycle;Signal;HPM_P1;HPM_P2
2022/05/13 00:00:28;;;;;;;19.33;5.32;;;;;;;20.64;49.01;101080.06;4923897;29;20051;-81
2022/05/13 00:03:13;;;;;;;11.32;2.92;;;;;;;20.52;49.94;101072.78;4923229;29;20040;-81
2022/05/13 00:05:58;;;;;;;12.35;3.22;;;;;;;20.43;49.31;101066.75;4935195;29;20071;-81
2022/05/13 00:08:43;;;;;;;5.95;2.75;;;;;;;20.57;49.18;101068.94;4919954;29;20534;-81
2022/05/13 00:11:28;;;;;;;10.73;3.03;;;;;;;20.42;50.01;101071.47;4936882;29;20059;-81
2022/05/13 00:14:13;;;;;;;9.65;3.70;;;;;;;20.37;49.34;101060.75;4920319;29;20051;-81
2022/05/13 00:16:58;;;;;;;12.77;3.83;;;;;;;20.41;49.22;101058.84;4939906;28;20099;-80
2022/05/13 00:19:42;;;;;;;9.18;3.15;;;;;;;20.28;50.04;101068.47;4922005;29;20051;-81
2022/05/13 00:22:28;;;;;;;5.00;2.92;;;;;;;20.24;50.48;101067.63;4921537;29;20051;-81
2022/05/13 00:25:16;;;;;;;13.30;3.20;;;;;;;20.40;49.12;101062.78;4919803;29;20058;-82
2022/05/13 00:28:03;;;;;;;9.65;3.17;;;;;;;20.39;50.02;101057.63;4923167;29;20044;-81
2022/05/13 00:30:49;;;;;;;9.13;3.47;;;;;;;20.25;50.04;101069.22;4920625;29;20055;-81
2022/05/13 00:33:33;;;;;;;9.52;3.47;;;;;;;20.27;50.33;101074.34;4933884;29;20051;-83
2022/05/13 00:36:18;;;;;;;15.63;3.50;;;;;;;20.17;50.42;101070.28;4932214;29;20051;-83
2022/05/13 00:39:04;;;;;;;15.35;4.20;;;;;;;20.20;51.09;101061.25;4913321;29;20070;-83
2022/05/13 00:41:49;;;;;;;8.65;3.08;;;;;;;20.19;50.40;101062.44;4920182;29;20040;-82
2022/05/13 00:44:34;;;;;;;8.45;3.47;;;;;;;19.99;50.76;101063.69;4942475;29;20058;-82
2022/05/13 00:47:21;;;;;;;8.75;3.30;;;;;;;19.95;51.59;101066.41;4924671;29;20054;-81
2022/05/13 00:50:07;;;;;;;8.82;3.60;;;;;;;19.92;52.09;101066.31;4900878;29;20047;-82
2022/05/13 00:52:53;;;;;;;18.20;4.07;;;;;;;20.04;51.12;101053.13;4904956;29;20114;-81
2022/05/13 00:55:42;;;;;;;15.65;4.30;;;;;;;20.03;51.02;101061.78;4900743;29;20124;-84
2022/05/13 00:58:28;;;;;;;11.55;4.25;;;;;;;20.10;50.25;101058.34;4919047;29;20051;-83
2022/05/13 01:01:14;;;;;;;8.82;4.00;;;;;;;20.04;50.97;101061.41;4922589;29;20044;-82
2022/05/13 01:04:02;;;;;;;8.27;4.32;;;;;;;19.91;51.97;101064.75;4932520;29;20067;-83
2022/05/13 01:06:50;;;;;;;7.95;3.70;;;;;;;19.87;52.43;101063.88;4928214;29;20429;-83
2022/05/13 01:09:40;;;;;;;6.40;3.22;;;;;;;19.85;53.04;101063.47;4919375;29;20051;-83
2022/05/13 01:12:31;;;;;;;4.90;3.15;;;;;;;19.83;53.19;101066.59;4935153;29;20506;-83
2022/05/13 01:15:22;;;;;;;11.32;3.67;;;;;;;19.79;53.58;101067.69;4924907;29;20051;-82
2022/05/13 01:18:08;;;;;;;13.32;4.22;;;;;;;19.74;53.01;101063.28;4921864;29;20048;-81
2022/05/13 01:20:53;;;;;;;6.40;3.58;;;;;;;19.70;53.08;101056.91;4926061;29;20048;-81
2022/05/13 01:23:41;;;;;;;8.02;3.72;;;;;;;19.84;53.02;101053.59;4935428;29;20427;-82
2022/05/13 01:26:29;;;;;;;10.50;3.72;;;;;;;19.76;53.35;101057.41;4925426;29;20531;-81
2022/05/13 01:29:14;;;;;;;12.93;4.55;;;;;;;19.46;53.84;101049.78;4914638;29;20059;-81
2022/05/13 01:31:58;;;;;;;10.40;4.05;;;;;;;19.54;53.69;101054.28;4918640;29;20051;-81
2022/05/13 01:34:43;;;;;;;11.30;4.22;;;;;;;19.79;52.50;101048.38;4935574;29;20052;-81
2022/05/13 01:37:28;;;;;;;14.27;4.22;;;;;;;19.63;53.52;101046.53;4902100;29;20045;-82
2022/05/13 01:40:13;;;;;;;12.45;5.05;;;;;;;19.67;53.02;101054.06;4926770;29;20047;-84
2022/05/13 01:42:58;;;;;;;10.98;5.18;;;;;;;19.68;52.86;101050.16;4920332;29;20040;-81
2022/05/13 01:45:43;;;;;;;13.77;5.80;;;;;;;19.76;51.91;101047.13;4930560;29;20055;-82
2022/05/13 01:48:28;;;;;;;16.52;5.28;;;;;;;19.77;52.22;101050.69;4918763;29;20055;-81
2022/05/13 01:51:14;;;;;;;15.77;5.25;;;;;;;19.62;52.94;101055.97;4918595;29;20055;-81
2022/05/13 01:54:00;;;;;;;9.15;5.22;;;;;;;19.38;53.47;101050.81;4920796;29;20041;-81
2022/05/13 01:56:44;;;;;;;14.13;4.75;;;;;;;19.43;53.43;101056.00;4918006;29;20522;-81
2022/05/13 01:59:29;;;;;;;14.80;4.82;;;;;;;19.42;53.39;101051.66;4921482;29;20040;-81
2022/05/13 02:02:15;;;;;;;14.13;4.10;;;;;;;19.43;54.32;101044.97;4920814;29;20040;-81
2022/05/13 02:04:59;;;;;;;11.43;4.60;;;;;;;19.52;53.30;101045.56;4925331;29;20051;-81
2022/05/13 02:07:45;;;;;;;7.00;4.32;;;;;;;19.48;53.67;101052.19;4920010;29;20044;-84
2022/05/13 02:10:30;;;;;;;;;;;;;;;19.39;54.69;101049.63;4920522;29;20059;-83
2022/05/13 02:13:16;;;;;;;11.00;4.75;;;;;;;19.39;53.76;101046.88;4925526;29;20374;-84
2022/05/13 02:16:03;;;;;;;14.48;4.78;;;;;;;19.06;54.18;101050.19;4927885;29;20044;-84
2022/05/13 02:18:48;;;;;;;15.57;5.05;;;;;;;18.97;54.69;101035.84;4920370;29;20052;-82
2022/05/13 02:21:33;;;;;;;13.95;5.70;;;;;;;18.90;54.64;101045.91;4906069;29;20048;-82
2022/05/13 02:24:18;;;;;;;11.63;5.28;;;;;;;18.92;54.89;101046.34;4921318;29;20059;-83
2022/05/13 02:27:03;;;;;;;12.95;5.40;;;;;;;18.99;54.87;101054.78;4918071;29;20047;-82
2022/05/13 02:29:48;;;;;;;14.00;6.05;;;;;;;19.03;55.19;101050.13;4923164;29;20047;-83
2022/05/13 02:32:34;;;;;;;10.35;4.53;;;;;;;19.07;55.64;101049.03;4922462;29;20407;-84
2022/05/13 02:35:19;;;;;;;;;;;;;;;19.03;55.60;101052.88;4941361;29;20056;-82
2022/05/13 02:38:04;;;;;;;9.88;5.28;;;;;;;19.07;55.80;101048.22;4922014;29;19915;-82
2022/05/13 02:43:55;;;;;;;8.13;4.88;;;;;;;19.22;55.52;101056.41;4942137;29;20040;-82
2022/05/13 02:46:42;;;;;;;12.88;5.13;;;;;;;19.21;55.85;101043.78;4921458;29;20051;-84
2022/05/13 02:49:26;;;;;;;17.13;4.95;;;;;;;19.15;54.92;101052.72;4961224;23;20037;-81
2022/05/13 02:52:11;;;;;;;10.23;4.80;;;;;;;19.13;55.08;101049.53;4946071;28;20046;-81
2022/05/13 02:54:56;;;;;;;12.63;5.50;;;;;;;19.01;55.02;101044.16;4962985;28;20054;-81
2022/05/13 02:57:41;;;;;;;21.92;6.05;;;;;;;18.82;55.42;101041.44;4945466;29;20418;-81
2022/05/13 03:00:26;;;;;;;16.15;6.85;;;;;;;18.67;56.04;101032.88;4950704;28;20040;-81
2022/05/13 03:03:12;;;;;;;19.85;6.03;;;;;;;18.70;56.65;101032.13;4931283;29;20044;-78
2022/05/13 03:05:58;;;;;;;12.60;5.15;;;;;;;18.74;56.60;101035.75;4927639;29;20046;-79
2022/05/13 03:08:44;;;;;;;16.27;6.53;;;;;;;18.80;56.10;101039.03;4932822;29;20054;-78
2022/05/13 03:11:29;;;;;;;;;;;;;;;18.89;56.29;101041.59;4925319;29;20047;-78
2022/05/13 03:14:14;;;;;;;23.73;7.20;;;;;;;18.76;56.07;101040.91;4930232;29;19914;-79
2022/05/13 03:16:59;;;;;;;11.23;5.97;;;;;;;18.71;56.51;101036.50;4944642;28;20043;-79
2022/05/13 03:19:44;;;;;;;14.45;6.18;;;;;;;18.57;57.05;101038.97;4945886;29;20058;-79
2022/05/13 03:22:30;;;;;;;14.60;6.05;;;;;;;18.48;56.84;101043.06;4948214;29;20051;-80
2022/05/13 03:25:15;;;;;;;20.17;6.03;;;;;;;18.56;56.99;101047.56;4935306;29;20055;-80
2022/05/13 03:28:00;;;;;;;21.23;5.72;;;;;;;18.67;56.75;101051.34;4937481;29;20414;-79
2022/05/13 03:30:44;;;;;;;19.40;4.93;;;;;;;18.50;56.80;101055.28;4936805;29;20055;-80
2022/05/13 03:33:30;;;;;;;26.60;7.93;;;;;;;18.59;56.74;101052.38;4951809;28;20043;-79
2022/05/13 03:36:15;;;;;;;13.75;6.32;;;;;;;18.66;56.59;101041.50;4937428;29;20499;-80
2022/05/13 03:39:00;;;;;;;13.30;6.18;;;;;;;18.49;57.40;101039.91;4935593;29;20046;-79
2022/05/13 03:41:44;;;;;;;17.80;5.57;;;;;;;18.64;57.16;101043.84;4941314;28;20043;-78
2022/05/13 03:44:31;;;;;;;16.77;5.75;;;;;;;18.46;57.69;101046.16;4933029;29;20059;-80
2022/05/13 03:47:16;;;;;;;14.25;5.75;;;;;;;18.41;57.91;101049.19;4932832;29;20415;-79
2022/05/13 03:50:03;;;;;;;21.33;7.25;;;;;;;18.45;57.98;101049.25;4948028;28;20036;-78
2022/05/13 03:52:47;;;;;;;15.80;5.22;;;;;;;18.40;58.17;101039.31;4939542;28;20495;-79
2022/05/13 03:55:33;;;;;;;;;;;;;;;18.49;58.08;101039.16;4945427;28;20514;-79
2022/05/13 03:58:18;;;;;;;15.10;5.70;;;;;;;18.44;58.23;101047.69;4940835;29;19922;-79
2022/05/13 04:01:03;;;;;;;;;;;;;;;18.40;58.93;101047.59;4928365;29;20050;-78
2022/05/13 04:03:48;;;;;;;12.82;5.75;;;;;;;18.29;59.24;101046.56;4935605;29;20300;-79
2022/05/13 04:09:36;;;;;;;10.38;5.70;;;;;;;18.33;59.37;101044.69;4933612;29;20056;-80
2022/05/13 04:18:44;;;;;;;12.20;5.68;;;;;;;18.36;59.38;101052.22;4931371;29;20058;-79
2022/05/13 04:21:32;;;;;;;16.30;6.57;;;;;;;18.39;59.17;101046.78;4932413;29;20079;-79
2022/05/13 04:24:19;;;;;;;17.00;6.88;;;;;;;18.34;59.56;101052.56;4950691;28;20042;-79
2022/05/13 04:27:04;;;;;;;15.50;7.13;;;;;;;18.30;59.29;101048.16;4924885;29;20048;-78
2022/05/13 04:29:49;;;;;;;19.33;6.40;;;;;;;18.38;59.32;101049.94;4938377;29;20058;-80
2022/05/13 04:32:34;;;;;;;14.98;7.32;;;;;;;18.43;59.13;101048.84;4935406;29;20590;-80
2022/05/13 04:35:18;;;;;;;20.50;6.10;;;;;;;18.45;59.21;101063.03;4940381;29;20392;-78
2022/05/13 04:38:03;;;;;;;21.00;6.63;;;;;;;18.56;59.12;101070.41;4934984;28;20039;-81
2022/05/13 04:40:48;;;;;;;11.60;6.20;;;;;;;18.53;59.44;101073.88;4937633;28;20502;-80
2022/05/13 04:43:33;;;;;;;16.50;6.18;;;;;;;18.48;59.13;101071.41;4950122;29;20047;-80
2022/05/13 04:46:18;;;;;;;16.88;6.93;;;;;;;18.52;59.47;101080.53;4938753;28;20044;-79
2022/05/13 04:49:05;;;;;;;19.17;6.30;;;;;;;18.61;59.10;101085.84;4930975;28;20039;-79
2022/05/13 04:51:49;;;;;;;21.02;6.18;;;;;;;18.64;58.85;101080.41;4946408;28;20510;-78
2022/05/13 04:54:34;;;;;;;18.85;7.15;;;;;;;18.56;59.70;101083.38;4949819;28;20410;-77
2022/05/13 04:57:18;;;;;;;12.43;5.80;;;;;;;18.63;59.23;101078.03;4929268;29;20442;-78
2022/05/13 05:00:07;;;;;;;;;;;;;;;18.61;59.54;101088.59;4931220;29;20422;-79
2022/05/13 05:02:52;;;;;;;21.02;6.30;;;;;;;18.59;59.28;101082.69;4933427;29;19918;-80
2022/05/13 05:05:37;;;;;;;;;;;;;;;18.75;58.95;101086.97;4936029;29;20054;-78
2022/05/13 05:08:22;;;;;;;17.85;6.75;;;;;;;18.84;58.39;101083.22;4937775;28;19914;-78
2022/05/13 05:11:08;;;;;;;;;;;;;;;18.92;58.08;101090.44;4945240;28;20417;-78
2022/05/13 05:13:52;;;;;;;28.05;7.03;;;;;;;18.97;58.32;101087.41;4938834;29;19923;-79
2022/05/13 05:16:38;;;;;;;16.42;7.28;;;;;;;19.04;58.18;101090.31;4930833;29;20043;-80
2022/05/13 05:19:23;;;;;;;;;;;;;;;19.10;58.59;101097.91;4944211;29;20494;-80
2022/05/13 05:22:07;;;;;;;15.50;6.85;;;;;;;19.19;57.96;101100.47;4950306;28;19911;-78
2022/05/13 05:24:52;;;;;;;46.40;7.93;;;;;;;19.22;57.96;101095.00;4938089;29;20056;-79
2022/05/13 05:27:37;;;;;;;18.48;7.40;;;;;;;19.25;57.34;101104.50;4934680;29;20498;-79
2022/05/13 05:30:23;;;;;;;22.45;8.63;;;;;;;19.40;57.27;101111.88;4940017;28;20043;-79
2022/05/13 05:33:08;;;;;;;13.30;7.20;;;;;;;19.49;57.43;101120.78;4929105;29;20418;-80
2022/05/13 05:35:53;;;;;;;13.77;6.68;;;;;;;19.61;57.03;101122.56;4930917;29;20429;-81
2022/05/13 05:38:38;;;;;;;;;;;;;;;19.79;55.75;101118.19;4934329;29;20044;-79
2022/05/13 05:41:23;;;;;;;12.00;7.75;;;;;;;19.84;55.86;101120.63;4933592;29;19915;-81
2022/05/13 05:44:07;;;;;;;22.02;9.57;;;;;;;19.91;54.85;101119.97;4934125;29;20036;-81
2022/05/13 05:46:52;;;;;;;16.50;7.05;;;;;;;20.00;54.91;101120.50;4937882;29;20537;-82
2022/05/13 05:49:37;;;;;;;21.40;7.85;;;;;;;20.07;55.14;101117.84;4938404;29;20418;-81
2022/05/13 05:52:22;;;;;;;17.20;8.13;;;;;;;20.12;54.76;101125.81;4927221;29;20051;-80
2022/05/13 05:58:13;;;;;;;19.52;7.85;;;;;;;20.27;55.63;101130.41;4938265;29;20035;-79
2022/05/13 06:00:58;;;;;;;17.60;9.07;;;;;;;20.36;55.54;101139.28;4937354;29;20066;-80
2022/05/13 06:03:43;;;;;;;17.13;8.00;;;;;;;20.47;54.91;101131.94;4940304;29;20044;-79
2022/05/13 06:06:28;;;;;;;18.27;10.27;;;;;;;20.43;54.36;101139.38;4939334;29;20051;-79
2022/05/13 06:09:13;;;;;;;16.00;9.52;;;;;;;20.55;54.07;101135.59;4941713;29;20047;-80
2022/05/13 06:11:58;;;;;;;16.83;9.02;;;;;;;20.65;54.09;101129.44;4930573;29;20055;-82
2022/05/13 06:14:43;;;;;;;15.40;8.00;;;;;;;20.61;54.89;101136.88;4929937;29;20510;-79
2022/05/13 06:17:27;;;;;;;18.58;8.70;;;;;;;20.68;54.68;101130.66;4934032;28;20495;-82
2022/05/13 06:20:14;;;;;;;26.50;11.48;;;;;;;20.79;54.29;101131.59;4942441;28;20046;-82
2022/05/13 06:22:59;;;;;;;19.70;9.10;;;;;;;20.91;54.42;101128.63;4941523;28;20035;-81
2022/05/13 06:25:43;;;;;;;19.65;9.30;;;;;;;21.07;53.71;101129.22;4949731;28;20419;-81
2022/05/13 06:28:28;;;;;;;21.85;9.23;;;;;;;21.01;53.40;101130.72;4956958;28;20051;-81
2022/05/13 06:31:13;;;;;;;19.27;9.20;;;;;;;21.11;53.57;101138.34;4956373;28;20043;-81
2022/05/13 06:33:58;;;;;;;22.98;10.07;;;;;;;21.15;53.63;101144.75;4936545;28;20486;-80
2022/05/13 06:36:43;;;;;;;23.05;9.55;;;;;;;21.23;52.75;101143.66;4950315;28;20043;-80
2022/05/13 06:39:28;;;;;;;19.50;8.45;;;;;;;21.27;52.80;101143.72;4933891;28;20048;-80
2022/05/13 06:42:13;;;;;;;21.45;9.13;;;;;;;21.32;52.85;101135.88;4923126;29;20043;-80
2022/05/13 06:45:00;;;;;;;15.63;8.43;;;;;;;21.42;52.98;101128.06;4940843;29;20035;-79
2022/05/13 06:47:45;;;;;;;29.70;10.75;;;;;;;21.49;52.69;101134.47;4940262;28;20079;-80
2022/05/13 06:50:32;;;;;;;18.25;10.27;;;;;;;21.58;52.58;101139.72;4942507;28;20048;-81
2022/05/13 06:53:18;;;;;;;38.47;9.88;;;;;;;21.77;52.19;101136.75;4942560;29;20039;-81
2022/05/13 06:56:03;;;;;;;24.27;8.82;;;;;;;21.86;52.08;101137.22;4945247;28;20418;-80
2022/05/13 06:58:48;;;;;;;21.25;9.63;;;;;;;21.89;52.04;101141.97;4947941;28;20043;-77
2022/05/13 07:01:33;;;;;;;40.15;10.77;;;;;;;21.87;52.42;101152.66;4955258;28;20399;-82
2022/05/13 07:04:18;;;;;;;23.95;9.38;;;;;;;21.86;52.34;101151.06;4944999;28;20507;-82
2022/05/13 07:07:03;;;;;;;34.22;12.05;;;;;;;21.93;51.98;101142.84;4941103;28;20052;-81
2022/05/13 07:09:47;;;;;;;16.80;8.20;;;;;;;21.94;52.37;101152.75;4944297;28;20507;-81
2022/05/13 07:12:32;;;;;;;20.40;9.48;;;;;;;22.00;52.77;101150.41;4959507;28;20047;-80
2022/05/13 07:15:19;;;;;;;23.70;9.68;;;;;;;22.08;52.04;101146.56;4943183;29;20050;-83
2022/05/13 07:18:05;;;;;;;21.20;7.85;;;;;;;22.17;51.83;101149.78;4928439;29;20043;-80
2022/05/13 07:20:50;;;;;;;17.42;9.38;;;;;;;22.21;52.14;101144.25;4955152;28;20055;-81
2022/05/13 07:23:34;;;;;;;28.33;11.02;;;;;;;22.29;51.84;101143.16;4948022;28;20043;-80
2022/05/13 07:26:19;;;;;;;15.57;9.98;;;;;;;22.37;51.55;101145.59;4950162;29;20043;-81
2022/05/13 07:29:05;;;;;;;25.70;8.43;;;;;;;22.42;51.42;101144.44;4951049;28;20044;-81
2022/05/13 07:31:49;;;;;;;54.42;10.27;;;;;;;22.51;51.18;101133.81;4945558;28;20490;-82
2022/05/13 07:34:34;;;;;;;39.83;8.38;;;;;;;22.65;50.99;101142.22;4946641;28;20043;-82
2022/05/13 07:37:19;;;;;;;26.13;7.88;;;;;;;22.73;50.68;101141.09;4941498;28;20046;-81
2022/05/13 07:43:09;;;;;;;17.83;10.00;;;;;;;22.77;51.18;101133.59;4935423;29;20043;-82
2022/05/13 07:45:54;;;;;;;21.60;9.45;;;;;;;22.84;50.89;101139.19;4935573;29;20495;-82
2022/05/13 07:48:40;;;;;;;22.98;6.85;;;;;;;22.84;50.77;101138.41;4935810;29;20414;-81
2022/05/13 07:51:26;;;;;;;13.80;6.85;;;;;;;22.88;50.01;101128.13;4935629;29;20074;-81
2022/05/13 07:54:11;;;;;;;12.77;8.35;;;;;;;22.96;50.25;101130.53;4939585;29;20039;-80
2022/05/13 07:56:56;;;;;;;18.17;8.00;;;;;;;22.95;50.16;101123.41;4931091;28;20495;-81
2022/05/13 08:02:45;;;;;;;14.18;9.07;;;;;;;22.99;50.88;101128.97;4948520;28;20047;-80
2022/05/13 08:05:42;;;;;;;16.98;6.32;;;;;;;23.11;50.63;101139.69;4931685;29;20052;-81
2022/05/13 08:08:31;;;;;;;14.20;6.30;;;;;;;22.98;49.19;101132.91;4934164;29;20047;-80
2022/05/13 08:11:17;;;;;;;18.05;9.57;;;;;;;23.15;50.15;101136.97;4936833;29;20308;-80
2022/05/13 08:14:02;;;;;;;19.92;7.13;;;;;;;23.27;49.10;101134.63;4933444;29;20513;-80
2022/05/13 08:16:47;;;;;;;21.67;8.45;;;;;;;23.49;49.14;101138.28;4939406;29;20044;-78
2022/05/13 08:19:32;;;;;;;11.02;8.07;;;;;;;23.35;49.31;101129.91;4937203;29;20048;-78
2022/05/13 08:22:17;;;;;;;20.02;8.95;;;;;;;23.46;49.24;101135.50;4931502;29;20050;-78
2022/05/13 08:25:03;;;;;;;16.58;7.22;;;;;;;23.46;48.86;101129.97;4939031;29;20499;-77
2022/05/13 08:27:48;;;;;;;14.00;9.27;;;;;;;23.57;49.71;101131.56;4937162;29;20044;-79
2022/05/13 08:30:33;;;;;;;10.50;6.15;;;;;;;23.57;48.81;101131.56;4931648;29;20058;-77
2022/05/13 08:33:19;;;;;;;13.40;8.35;;;;;;;23.60;49.08;101125.22;4934313;29;20063;-79
2022/05/13 08:36:05;;;;;;;14.07;5.97;;;;;;;23.60;48.79;101119.69;4927063;29;20039;-78
2022/05/13 08:38:50;;;;;;;15.75;9.35;;;;;;;23.90;48.93;101122.09;4930304;29;20052;-79
2022/05/13 08:42:07;;;;;;;16.17;7.15;;;;;;;23.91;47.75;101115.34;4930750;29;20055;-79
2022/05/13 08:44:54;;;;;;;19.98;8.63;;;;;;;23.82;48.45;101117.72;4935614;29;20044;-79
2022/05/13 08:47:53;;;;;;;12.70;8.88;;;;;;;24.05;47.76;101122.88;4928933;29;20063;-79
2022/05/13 08:50:50;;;;;;;13.98;7.47;;;;;;;23.88;48.11;101114.13;4960925;23;20522;-80
2022/05/13 08:53:44;;;;;;;15.40;8.32;;;;;;;23.98;47.97;101111.75;4956743;28;20050;-79
2022/05/13 08:56:32;;;;;;;15.75;5.57;;;;;;;23.84;47.38;101113.34;4956898;28;20521;-80
2022/05/13 08:59:23;;;;;;;14.05;6.93;;;;;;;23.85;47.77;101112.16;4951042;28;20043;-78
2022/05/13 09:02:28;;;;;;;18.52;10.00;;;;;;;24.06;47.50;101113.38;4938542;29;20430;-79
2022/05/13 09:05:28;;;;;;;13.48;6.03;;;;;;;24.14;47.07;101117.72;4950596;28;20043;-77
2022/05/13 09:08:13;;;;;;;16.65;8.88;;;;;;;24.29;46.80;101117.34;4937261;28;20031;-79
2022/05/13 09:11:13;;;;;;;16.10;7.65;;;;;;;24.15;46.98;101114.56;4941896;29;20050;-79
2022/05/13 09:14:03;;;;;;;16.73;8.25;;;;;;;24.23;47.02;101118.13;4945997;28;20490;-78
2022/05/13 09:17:13;;;;;;;13.30;7.80;;;;;;;24.37;47.03;101109.81;4960300;28;20047;-79
2022/05/13 09:19:59;;;;;;;17.58;8.93;;;;;;;24.49;46.31;101120.50;4950384;28;20461;-78
2022/05/13 09:22:49;;;;;;;11.43;6.40;;;;;;;24.35;46.27;101109.41;4926073;29;20046;-78
2022/05/13 09:25:44;;;;;;;17.17;8.23;;;;;;;24.42;46.41;101112.19;4946795;29;20039;-79
2022/05/13 09:28:31;;;;;;;16.17;9.88;;;;;;;24.71;47.24;101104.56;4944639;28;20047;-79
2022/05/13 09:31:15;;;;;;;23.77;9.77;;;;;;;24.77;46.52;101107.72;4942610;28;20414;-79
2022/05/13 09:34:00;;;;;;;;;;;;;;;24.71;46.19;101107.34;4936282;29;20048;-78
2022/05/13 09:36:48;;;;;;;15.07;8.40;;;;;;;24.61;46.38;101095.03;4946581;28;20306;-80
2022/05/13 09:39:37;;;;;;;17.65;9.55;;;;;;;24.62;46.51;101099.41;4944464;28;20414;-79
2022/05/13 09:42:34;;;;;;;27.60;9.50;;;;;;;24.84;46.11;101099.34;4935363;29;20044;-79
2022/05/13 09:45:26;;;;;;;13.00;7.55;;;;;;;24.65;45.62;101098.59;4940431;29;20047;-79
2022/05/13 09:48:20;;;;;;;17.38;10.32;;;;;;;24.95;45.06;101098.13;4941780;29;20036;-81
2022/05/13 09:51:30;;;;;;;21.55;8.50;;;;;;;24.79;45.72;101092.19;4945488;29;20052;-81
2022/05/13 09:54:33;;;;;;;14.02;7.68;;;;;;;24.83;45.97;101095.78;4944695;29;20050;-80
2022/05/13 09:57:27;;;;;;;16.30;8.27;;;;;;;24.86;46.28;101083.84;4944553;29;20059;-80
2022/05/13 10:00:17;;;;;;;22.33;9.65;;;;;;;24.81;46.46;101094.59;4959642;28;20035;-81
2022/05/13 10:03:22;;;;;;;11.95;7.20;;;;;;;24.84;45.45;101082.66;4935654;28;20047;-82
2022/05/13 10:06:10;;;;;;;19.02;8.95;;;;;;;24.72;46.27;101086.66;4938960;29;20046;-82
2022/05/13 10:15:14;;;;;;;23.27;10.23;;;;;;;25.06;45.38;101062.69;4941174;29;20066;-82
2022/05/13 10:18:09;;;;;;;21.52;10.75;;;;;;;25.20;45.06;101064.59;4949868;29;20442;-81
2022/05/13 10:20:57;;;;;;;;;;;;;;;25.33;45.05;101076.06;4965256;28;20043;-83
2022/05/13 10:23:47;;;;;;;287.90;60.88;;;;;;;25.33;44.86;101062.94;4954913;28;20297;-82
2022/05/13 10:26:39;;;;;;;140.30;36.83;;;;;;;25.37;44.77;101066.50;4937854;29;20043;-82
2022/05/13 10:29:41;;;;;;;63.80;21.38;;;;;;;25.49;44.76;101054.09;4945427;28;20040;-82
2022/05/13 10:32:40;;;;;;;43.40;16.60;;;;;;;25.43;44.17;101062.09;4940434;29;20047;-81
2022/05/13 10:35:32;;;;;;;47.25;16.55;;;;;;;25.28;44.38;101049.47;4950568;28;20039;-82
2022/05/13 10:38:36;;;;;;;40.45;15.35;;;;;;;25.01;44.60;101048.41;4958966;29;20043;-82
2022/05/13 10:41:30;;;;;;;31.52;13.32;;;;;;;24.98;44.91;101058.38;4944698;28;20039;-82
2022/05/13 10:44:26;;;;;;;37.90;13.07;;;;;;;24.96;45.59;101054.41;4935096;29;20040;-82
2022/05/13 10:47:19;;;;;;;34.25;13.60;;;;;;;24.87;45.85;101042.91;4939677;29;20459;-82
2022/05/13 10:50:15;;;;;;;22.17;13.30;;;;;;;24.80;46.11;101042.91;4948573;28;20044;-81
2022/05/13 10:53:28;;;;;;;23.70;14.32;;;;;;;24.81;46.63;101042.53;4948490;28;20039;-81
2022/05/13 10:56:34;;;;;;;31.58;15.23;;;;;;;24.86;47.36;101032.97;4963699;28;20064;-82
2022/05/13 10:59:38;;;;;;;33.88;16.67;;;;;;;25.11;46.65;101037.22;4938242;29;20499;-82
2022/05/13 11:02:38;;;;;;;24.85;13.35;;;;;;;25.20;45.66;101041.53;4930822;29;20447;-82
2022/05/13 11:05:48;;;;;;;21.75;13.70;;;;;;;25.36;45.60;101031.50;4945138;29;20048;-82
2022/05/13 11:09:04;;;;;;;27.48;12.75;;;;;;;25.34;45.31;101027.56;4953980;28;20047;-82
2022/05/13 11:11:53;;;;;;;16.98;9.60;;;;;;;25.34;45.01;101030.34;4937729;29;20048;-81
2022/05/13 11:14:53;;;;;;;23.52;10.27;;;;;;;25.20;45.35;101027.63;4937458;29;20048;-81
2022/05/13 11:17:53;;;;;;;18.42;10.55;;;;;;;24.95;46.19;101019.41;4938012;29;20040;-80
2022/05/13 11:21:00;;;;;;;20.35;11.02;;;;;;;24.88;46.65;101011.13;4934950;29;20051;-80
2022/05/13 11:27:24;;;;;;;24.90;11.75;;;;;;;24.89;46.47;101009.94;4936775;29;20248;-81
2022/05/13 11:30:17;;;;;;;19.08;11.68;;;;;;;24.89;47.08;101009.94;4940237;29;20043;-81
2022/05/13 11:33:34;;;;;;;19.20;10.27;;;;;;;24.78;46.65;101003.59;4939514;29;20498;-81
2022/05/13 11:36:23;;;;;;;17.83;13.07;;;;;;;24.70;47.48;101000.84;4937618;29;20498;-82
2022/05/13 11:39:24;;;;;;;23.55;11.65;;;;;;;24.84;47.42;100999.19;4938594;29;20047;-82
2022/05/13 11:42:27;;;;;;;26.63;14.10;;;;;;;24.99;47.15;101003.53;4945865;28;20040;-83
2022/05/13 11:45:24;;;;;;;21.70;11.43;;;;;;;25.10;46.14;100988.31;4932736;29;20035;-82
2022/05/13 11:48:40;;;;;;;28.35;11.75;;;;;;;25.22;45.99;100987.06;4935400;29;20043;-82
2022/05/13 11:51:28;;;;;;;19.40;10.18;;;;;;;24.98;46.51;100976.88;4931784;29;20043;-82
2022/05/13 11:54:16;;;;;;;18.92;11.38;;;;;;;25.05;46.99;100974.03;4937535;29;20039;-82
2022/05/13 11:57:24;;;;;;;21.13;11.60;;;;;;;25.06;47.13;100967.28;4937033;29;20047;-81
2022/05/13 12:00:36;;;;;;;21.92;10.77;;;;;;;25.14;46.83;100966.03;4939817;29;20039;-81
2022/05/13 12:03:21;;;;;;;19.98;9.85;;;;;;;25.26;46.60;100965.53;4936366;28;20052;-80
2022/05/13 12:06:11;;;;;;;29.50;9.07;;;;;;;25.37;46.05;100963.47;4934795;29;20043;-79
2022/05/13 12:08:57;;;;;;;16.88;8.52;;;;;;;25.41;45.50;100964.22;4940610;28;20035;-80
2022/05/13 12:11:42;;;;;;;15.55;8.25;;;;;;;25.43;46.00;100963.81;4926040;29;20040;-80
2022/05/13 12:14:46;;;;;;;16.45;8.65;;;;;;;25.49;46.35;100960.19;4933495;29;20051;-80
2022/05/13 12:17:49;;;;;;;19.58;9.05;;;;;;;25.76;45.29;100946.44;4948323;28;20051;-82
2022/05/13 12:20:47;;;;;;;17.70;8.27;;;;;;;25.79;45.02;100950.41;4936298;29;20036;-81
2022/05/13 12:23:41;;;;;;;16.05;7.25;;;;;;;25.79;44.98;100951.19;4947162;28;20415;-81
2022/05/13 12:26:51;;;;;;;17.60;7.70;;;;;;;25.63;45.42;100939.81;4928223;29;20052;-79
2022/05/13 12:29:56;;;;;;;12.13;7.63;;;;;;;25.48;45.46;100933.53;4925691;29;20059;-80
2022/05/13 12:32:48;;;;;;;17.30;7.05;;;;;;;25.45;46.30;100931.56;4935468;29;20530;-81
2022/05/13 12:39:05;;;;;;;20.20;6.40;;;;;;;25.43;46.13;100925.63;4926274;29;20055;-84
2022/05/13 12:42:05;;;;;;;15.32;7.00;;;;;;;25.41;46.22;100922.47;4935982;29;20040;-89
2022/05/13 12:44:58;;;;;;;15.05;6.78;;;;;;;25.49;45.76;100910.06;4943041;29;20043;-88
2022/05/13 12:48:16;;;;;;;20.15;8.18;;;;;;;25.45;46.66;100908.50;4949897;28;20039;-89
2022/05/13 12:51:10;;;;;;;17.55;8.20;;;;;;;25.50;46.22;100906.06;4945563;28;20082;-88
2022/05/13 12:53:58;;;;;;;23.60;8.73;;;;;;;25.71;46.29;100901.50;4939961;29;20036;-88
2022/05/13 12:56:48;;;;;;;21.42;8.77;;;;;;;25.87;46.16;100901.75;4939713;29;20458;-82
2022/05/13 12:59:39;;;;;;;14.45;7.00;;;;;;;25.91;45.98;100897.72;4940598;29;20051;-88
2022/05/13 13:02:27;;;;;;;12.10;6.85;;;;;;;25.88;45.43;100897.75;4938236;29;20047;-87
2022/05/13 13:05:19;;;;;;;9.65;6.63;;;;;;;25.82;45.55;100894.63;4935057;29;20043;-88
2022/05/13 13:08:15;;;;;;;13.88;7.35;;;;;;;25.95;45.55;100892.91;4940631;29;20060;-87
2022/05/13 13:11:24;;;;;;;12.25;6.32;;;;;;;25.94;45.22;100891.31;4932819;29;20125;-86
2022/05/13 13:14:41;;;;;;;14.73;7.70;;;;;;;25.88;46.01;100890.19;4939695;29;20514;-87
2022/05/13 13:17:56;;;;;;;16.17;6.75;;;;;;;25.92;45.86;100887.34;4940085;29;20043;-86
2022/05/13 13:20:52;;;;;;;19.48;6.90;;;;;;;26.02;45.21;100880.88;4929940;29;20048;-86
2022/05/13 13:23:43;;;;;;;12.32;6.05;;;;;;;26.32;44.03;100872.53;4927324;29;20437;-86
2022/05/13 13:26:28;;;;;;;11.27;7.13;;;;;;;26.42;43.65;100870.03;4923679;29;20043;-86
2022/05/13 13:29:17;;;;;;;16.40;6.90;;;;;;;26.27;44.35;100872.22;4932815;29;20056;-85
2022/05/13 13:32:07;;;;;;;13.80;6.10;;;;;;;26.13;45.05;100862.00;4934426;29;20051;-88
2022/05/13 13:35:03;;;;;;;13.30;5.57;;;;;;;26.14;45.09;100857.22;4935790;29;20533;-87